sensor_id;sensor_type;location;lat;lon;timestamp;P1;durP1;ratioP1;P2;durP2;ratioP2
4786;SDS011;62338;48.832;9.422;2023-02-26T00:00:05;4.43;;;2.90;;
4786;SDS011;62338;48.832;9.422;2023-02-26T00:02:15;4.50;;;3.10;;
4786;SDS011;62338;48.832;9.422;2023-02-26T00:04:17;6.43;;;3.50;;
4786;SDS011;62338;48.832;9.422;2023-02-26T00:06:19;5.33;;;3.50;;
4786;SDS011;62338;48.832;9.422;2023-02-26T00:08:21;5.43;;;3.00;;
4786;SDS011;62338;48.832;9.422;2023-02-26T00:10:23;4.17;;;2.70;;
4786;SDS011;62338;48.832;9.422;2023-02-26T00:12:25;3.20;;;2.67;;
4786;SDS011;62338;48.832;9.422;2023-02-26T00:14:27;5.70;;;4.20;;
4786;SDS011;62338;48.832;9.422;2023-02-26T00:16:34;5.90;;;2.97;;
4786;SDS011;62338;48.832;9.422;2023-02-26T00:18:36;7.57;;;3.57;;
4786;SDS011;62338;48.832;9.422;2023-02-26T00:20:38;6.23;;;3.53;;
4786;SDS011;62338;48.832;9.422;2023-02-26T00:22:41;8.00;;;4.33;;
4786;SDS011;62338;48.832;9.422;2023-02-26T00:24:43;6.70;;;4.03;;
4786;SDS011;62338;48.832;9.422;2023-02-26T00:26:45;9.93;;;4.37;;
4786;SDS011;62338;48.832;9.422;2023-02-26T00:28:47;7.30;;;3.73;;
4786;SDS011;62338;48.832;9.422;2023-02-26T00:30:50;6.93;;;4.03;;
4786;SDS011;62338;48.832;9.422;2023-02-26T00:32:52;7.80;;;4.03;;
4786;SDS011;62338;48.832;9.422;2023-02-26T00:34:54;5.80;;;3.37;;
4786;SDS011;62338;48.832;9.422;2023-02-26T00:41:39;6.30;;;3.53;;
4786;SDS011;62338;48.832;9.422;2023-02-26T00:43:42;9.33;;;4.73;;
4786;SDS011;62338;48.832;9.422;2023-02-26T00:46:02;8.53;;;4.67;;
4786;SDS011;62338;48.832;9.422;2023-02-26T00:48:21;7.10;;;4.33;;
4786;SDS011;62338;48.832;9.422;2023-02-26T00:50:46;7.97;;;4.70;;
4786;SDS011;62338;48.832;9.422;2023-02-26T00:53:07;8.13;;;4.00;;
4786;SDS011;62338;48.832;9.422;2023-02-26T00:55:17;10.53;;;4.77;;
4786;SDS011;62338;48.832;9.422;2023-02-26T00:57:19;8.50;;;4.40;;
4786;SDS011;62338;48.832;9.422;2023-02-26T00:59:21;8.53;;;4.80;;
4786;SDS011;62338;48.832;9.422;2023-02-26T01:01:23;7.33;;;4.40;;
4786;SDS011;62338;48.832;9.422;2023-02-26T01:03:25;8.40;;;3.70;;
4786;SDS011;62338;48.832;9.422;2023-02-26T01:05:28;11.17;;;4.83;;
4786;SDS011;62338;48.832;9.422;2023-02-26T01:07:31;9.87;;;5.77;;
4786;SDS011;62338;48.832;9.422;2023-02-26T01:09:42;8.70;;;4.43;;
4786;SDS011;62338;48.832;9.422;2023-02-26T01:11:44;7.20;;;4.40;;
4786;SDS011;62338;48.832;9.422;2023-02-26T01:13:46;8.83;;;3.70;;
4786;SDS011;62338;48.832;9.422;2023-02-26T01:15:51;7.70;;;3.93;;
4786;SDS011;62338;48.832;9.422;2023-02-26T01:20:15;6.70;;;3.53;;
4786;SDS011;62338;48.832;9.422;2023-02-26T01:22:31;5.47;;;3.47;;
4786;SDS011;62338;48.832;9.422;2023-02-26T01:24:47;5.63;;;3.13;;
4786;SDS011;62338;48.832;9.422;2023-02-26T01:26:54;5.70;;;3.70;;
4786;SDS011;62338;48.832;9.422;2023-02-26T01:28:55;6.10;;;3.37;;
4786;SDS011;62338;48.832;9.422;2023-02-26T01:30:59;4.47;;;3.50;;
4786;SDS011;62338;48.832;9.422;2023-02-26T01:35:22;8.10;;;3.67;;
4786;SDS011;62338;48.832;9.422;2023-02-26T01:42:19;5.93;;;3.63;;
4786;SDS011;62338;48.832;9.422;2023-02-26T01:47:03;5.53;;;3.50;;
4786;SDS011;62338;48.832;9.422;2023-02-26T01:49:15;8.57;;;4.23;;
4786;SDS011;62338;48.832;9.422;2023-02-26T01:51:42;6.47;;;3.57;;
4786;SDS011;62338;48.832;9.422;2023-02-26T01:53:43;6.73;;;4.50;;
4786;SDS011;62338;48.832;9.422;2023-02-26T01:55:47;6.80;;;3.60;;
4786;SDS011;62338;48.832;9.422;2023-02-26T01:57:53;7.80;;;3.83;;
4786;SDS011;62338;48.832;9.422;2023-02-26T01:59:58;5.37;;;3.80;;
4786;SDS011;62338;48.832;9.422;2023-02-26T02:02:06;6.90;;;4.40;;
4786;SDS011;62338;48.832;9.422;2023-02-26T02:04:12;7.03;;;4.63;;
4786;SDS011;62338;48.832;9.422;2023-02-26T02:06:20;9.77;;;4.77;;
4786;SDS011;62338;48.832;9.422;2023-02-26T02:08:25;9.10;;;4.37;;
4786;SDS011;62338;48.832;9.422;2023-02-26T02:10:27;10.80;;;4.53;;
4786;SDS011;62338;48.832;9.422;2023-02-26T02:12:37;7.47;;;4.10;;
4786;SDS011;62338;48.832;9.422;2023-02-26T02:17:58;10.17;;;4.17;;
4786;SDS011;62338;48.832;9.422;2023-02-26T02:19:54;4.80;;;3.37;;
4786;SDS011;62338;48.832;9.422;2023-02-26T02:22:19;9.43;;;3.80;;
4786;SDS011;62338;48.832;9.422;2023-02-26T02:24:34;8.80;;;3.83;;
4786;SDS011;62338;48.832;9.422;2023-02-26T02:26:58;4.77;;;2.97;;
4786;SDS011;62338;48.832;9.422;2023-02-26T02:31:42;7.00;;;2.90;;
4786;SDS011;62338;48.832;9.422;2023-02-26T02:33:58;5.10;;;2.80;;
4786;SDS011;62338;48.832;9.422;2023-02-26T02:36:10;6.10;;;3.17;;
4786;SDS011;62338;48.832;9.422;2023-02-26T02:38:47;6.60;;;2.90;;
4786;SDS011;62338;48.832;9.422;2023-02-26T02:40:56;5.70;;;2.40;;
4786;SDS011;62338;48.832;9.422;2023-02-26T02:43:12;4.97;;;2.70;;
4786;SDS011;62338;48.832;9.422;2023-02-26T02:45:18;5.07;;;2.50;;
4786;SDS011;62338;48.832;9.422;2023-02-26T02:47:28;7.27;;;2.70;;
4786;SDS011;62338;48.832;9.422;2023-02-26T02:49:35;4.00;;;2.47;;
4786;SDS011;62338;48.832;9.422;2023-02-26T02:51:52;3.83;;;2.90;;
4786;SDS011;62338;48.832;9.422;2023-02-26T02:54:00;5.87;;;2.80;;
4786;SDS011;62338;48.832;9.422;2023-02-26T02:58:43;11.77;;;2.40;;
4786;SDS011;62338;48.832;9.422;2023-02-26T03:00:53;3.53;;;2.43;;
4786;SDS011;62338;48.832;9.422;2023-02-26T03:05:20;4.37;;;2.70;;
4786;SDS011;62338;48.832;9.422;2023-02-26T03:07:22;6.87;;;2.63;;
4786;SDS011;62338;48.832;9.422;2023-02-26T03:09:24;2.63;;;2.20;;
4786;SDS011;62338;48.832;9.422;2023-02-26T03:11:26;6.37;;;2.80;;
4786;SDS011;62338;48.832;9.422;2023-02-26T03:13:28;8.57;;;3.00;;
4786;SDS011;62338;48.832;9.422;2023-02-26T03:15:32;6.17;;;3.17;;
4786;SDS011;62338;48.832;9.422;2023-02-26T03:17:53;7.40;;;2.70;;
4786;SDS011;62338;48.832;9.422;2023-02-26T03:22:31;8.57;;;2.57;;
4786;SDS011;62338;48.832;9.422;2023-02-26T03:25:26;5.90;;;2.67;;
4786;SDS011;62338;48.832;9.422;2023-02-26T03:29:38;8.17;;;2.80;;
4786;SDS011;62338;48.832;9.422;2023-02-26T03:32:12;3.80;;;2.30;;
4786;SDS011;62338;48.832;9.422;2023-02-26T03:34:20;4.37;;;2.17;;
4786;SDS011;62338;48.832;9.422;2023-02-26T03:36:50;3.90;;;2.03;;
4786;SDS011;62338;48.832;9.422;2023-02-26T03:38:58;3.80;;;2.10;;
4786;SDS011;62338;48.832;9.422;2023-02-26T03:41:09;4.10;;;2.13;;
4786;SDS011;62338;48.832;9.422;2023-02-26T03:43:34;6.83;;;2.23;;
4786;SDS011;62338;48.832;9.422;2023-02-26T03:45:42;4.63;;;2.20;;
4786;SDS011;62338;48.832;9.422;2023-02-26T03:47:47;10.37;;;3.10;;
4786;SDS011;62338;48.832;9.422;2023-02-26T03:51:58;5.37;;;2.17;;
4786;SDS011;62338;48.832;9.422;2023-02-26T03:54:09;4.47;;;1.97;;
4786;SDS011;62338;48.832;9.422;2023-02-26T03:58:26;5.13;;;2.07;;
4786;SDS011;62338;48.832;9.422;2023-02-26T04:00:28;5.43;;;2.30;;
4786;SDS011;62338;48.832;9.422;2023-02-26T04:05:02;6.53;;;2.77;;
4786;SDS011;62338;48.832;9.422;2023-02-26T04:07:15;4.13;;;2.00;;
4786;SDS011;62338;48.832;9.422;2023-02-26T04:09:18;5.60;;;2.50;;
4786;SDS011;62338;48.832;9.422;2023-02-26T04:11:21;6.90;;;2.10;;
4786;SDS011;62338;48.832;9.422;2023-02-26T04:13:25;5.10;;;2.37;;
4786;SDS011;62338;48.832;9.422;2023-02-26T04:15:28;6.00;;;2.67;;
4786;SDS011;62338;48.832;9.422;2023-02-26T04:17:30;5.80;;;2.40;;
4786;SDS011;62338;48.832;9.422;2023-02-26T04:19:32;4.00;;;2.33;;
4786;SDS011;62338;48.832;9.422;2023-02-26T04:21:34;5.20;;;2.17;;
4786;SDS011;62338;48.832;9.422;2023-02-26T04:23:36;5.57;;;2.50;;
4786;SDS011;62338;48.832;9.422;2023-02-26T04:25:37;7.70;;;2.13;;
4786;SDS011;62338;48.832;9.422;2023-02-26T04:27:39;5.40;;;2.20;;
4786;SDS011;62338;48.832;9.422;2023-02-26T04:29:41;3.07;;;2.07;;
4786;SDS011;62338;48.832;9.422;2023-02-26T04:31:43;5.67;;;2.23;;
4786;SDS011;62338;48.832;9.422;2023-02-26T04:33:45;4.10;;;2.23;;
4786;SDS011;62338;48.832;9.422;2023-02-26T04:35:47;4.13;;;1.93;;
4786;SDS011;62338;48.832;9.422;2023-02-26T04:37:49;4.50;;;2.33;;
4786;SDS011;62338;48.832;9.422;2023-02-26T04:39:51;6.63;;;2.63;;
4786;SDS011;62338;48.832;9.422;2023-02-26T04:41:53;5.20;;;2.40;;
4786;SDS011;62338;48.832;9.422;2023-02-26T04:43:55;5.90;;;2.30;;
4786;SDS011;62338;48.832;9.422;2023-02-26T04:45:57;4.10;;;2.10;;
4786;SDS011;62338;48.832;9.422;2023-02-26T04:47:59;6.07;;;2.70;;
4786;SDS011;62338;48.832;9.422;2023-02-26T04:50:02;5.83;;;2.27;;
4786;SDS011;62338;48.832;9.422;2023-02-26T04:52:04;7.17;;;2.47;;
4786;SDS011;62338;48.832;9.422;2023-02-26T04:54:06;6.23;;;2.67;;
4786;SDS011;62338;48.832;9.422;2023-02-26T04:56:08;6.13;;;2.73;;
4786;SDS011;62338;48.832;9.422;2023-02-26T04:58:10;8.17;;;2.40;;
4786;SDS011;62338;48.832;9.422;2023-02-26T05:00:12;4.67;;;2.80;;
4786;SDS011;62338;48.832;9.422;2023-02-26T05:02:15;3.97;;;2.33;;
4786;SDS011;62338;48.832;9.422;2023-02-26T05:04:17;6.50;;;2.57;;
4786;SDS011;62338;48.832;9.422;2023-02-26T05:06:18;6.80;;;2.70;;
4786;SDS011;62338;48.832;9.422;2023-02-26T05:08:20;6.07;;;2.83;;
4786;SDS011;62338;48.832;9.422;2023-02-26T05:10:22;5.20;;;2.30;;
4786;SDS011;62338;48.832;9.422;2023-02-26T05:12:25;4.57;;;2.50;;
4786;SDS011;62338;48.832;9.422;2023-02-26T05:14:27;13.97;;;2.40;;
4786;SDS011;62338;48.832;9.422;2023-02-26T05:16:29;13.17;;;3.10;;
4786;SDS011;62338;48.832;9.422;2023-02-26T05:18:31;5.40;;;2.40;;
4786;SDS011;62338;48.832;9.422;2023-02-26T05:20:33;6.10;;;2.80;;
4786;SDS011;62338;48.832;9.422;2023-02-26T05:22:36;4.90;;;2.57;;
4786;SDS011;62338;48.832;9.422;2023-02-26T05:24:38;5.03;;;2.53;;
4786;SDS011;62338;48.832;9.422;2023-02-26T05:26:40;7.93;;;2.83;;
4786;SDS011;62338;48.832;9.422;2023-02-26T05:28:42;4.60;;;2.83;;
4786;SDS011;62338;48.832;9.422;2023-02-26T05:30:45;6.17;;;2.57;;
4786;SDS011;62338;48.832;9.422;2023-02-26T05:32:48;7.60;;;2.97;;
4786;SDS011;62338;48.832;9.422;2023-02-26T05:34:50;4.80;;;2.80;;
4786;SDS011;62338;48.832;9.422;2023-02-26T05:36:51;5.13;;;3.03;;
4786;SDS011;62338;48.832;9.422;2023-02-26T05:38:53;7.20;;;3.00;;
4786;SDS011;62338;48.832;9.422;2023-02-26T05:40:56;6.20;;;2.80;;
4786;SDS011;62338;48.832;9.422;2023-02-26T05:42:58;6.93;;;2.90;;
4786;SDS011;62338;48.832;9.422;2023-02-26T05:45:00;4.70;;;2.63;;
4786;SDS011;62338;48.832;9.422;2023-02-26T05:47:02;5.63;;;3.00;;
4786;SDS011;62338;48.832;9.422;2023-02-26T05:49:04;5.20;;;3.20;;
4786;SDS011;62338;48.832;9.422;2023-02-26T05:51:05;5.37;;;3.10;;
4786;SDS011;62338;48.832;9.422;2023-02-26T05:53:07;4.27;;;2.57;;
4786;SDS011;62338;48.832;9.422;2023-02-26T05:55:09;6.50;;;3.10;;
4786;SDS011;62338;48.832;9.422;2023-02-26T05:57:11;5.70;;;3.40;;
4786;SDS011;62338;48.832;9.422;2023-02-26T05:59:13;5.73;;;3.13;;
4786;SDS011;62338;48.832;9.422;2023-02-26T06:01:14;8.53;;;2.97;;
4786;SDS011;62338;48.832;9.422;2023-02-26T06:03:16;5.83;;;2.97;;
4786;SDS011;62338;48.832;9.422;2023-02-26T06:05:18;5.57;;;3.00;;
4786;SDS011;62338;48.832;9.422;2023-02-26T06:07:20;5.50;;;2.60;;
4786;SDS011;62338;48.832;9.422;2023-02-26T06:09:22;4.20;;;2.73;;
4786;SDS011;62338;48.832;9.422;2023-02-26T06:11:24;7.13;;;2.90;;
4786;SDS011;62338;48.832;9.422;2023-02-26T06:13:26;5.60;;;3.00;;
4786;SDS011;62338;48.832;9.422;2023-02-26T06:15:28;7.40;;;2.27;;
4786;SDS011;62338;48.832;9.422;2023-02-26T06:17:29;5.93;;;2.43;;
4786;SDS011;62338;48.832;9.422;2023-02-26T06:19:31;8.20;;;2.77;;
4786;SDS011;62338;48.832;9.422;2023-02-26T06:21:33;5.93;;;2.97;;
4786;SDS011;62338;48.832;9.422;2023-02-26T06:23:35;4.17;;;2.83;;
4786;SDS011;62338;48.832;9.422;2023-02-26T06:25:37;3.80;;;2.37;;
4786;SDS011;62338;48.832;9.422;2023-02-26T06:27:38;6.73;;;2.80;;
4786;SDS011;62338;48.832;9.422;2023-02-26T06:29:40;5.70;;;2.77;;
4786;SDS011;62338;48.832;9.422;2023-02-26T06:31:43;8.33;;;3.63;;
4786;SDS011;62338;48.832;9.422;2023-02-26T06:33:45;12.70;;;4.87;;
4786;SDS011;62338;48.832;9.422;2023-02-26T06:35:48;8.67;;;4.77;;
4786;SDS011;62338;48.832;9.422;2023-02-26T06:37:51;6.30;;;4.23;;
4786;SDS011;62338;48.832;9.422;2023-02-26T06:39:53;5.80;;;2.90;;
4786;SDS011;62338;48.832;9.422;2023-02-26T06:41:55;6.77;;;2.60;;
4786;SDS011;62338;48.832;9.422;2023-02-26T06:43:56;5.47;;;2.90;;
4786;SDS011;62338;48.832;9.422;2023-02-26T06:45:58;3.83;;;2.60;;
4786;SDS011;62338;48.832;9.422;2023-02-26T06:48:00;6.10;;;2.20;;
4786;SDS011;62338;48.832;9.422;2023-02-26T06:50:02;6.10;;;2.27;;
4786;SDS011;62338;48.832;9.422;2023-02-26T06:52:05;5.40;;;3.10;;
4786;SDS011;62338;48.832;9.422;2023-02-26T06:54:07;7.40;;;2.17;;
4786;SDS011;62338;48.832;9.422;2023-02-26T06:56:08;6.60;;;2.40;;
4786;SDS011;62338;48.832;9.422;2023-02-26T06:58:10;8.03;;;2.83;;
4786;SDS011;62338;48.832;9.422;2023-02-26T07:00:13;5.33;;;2.20;;
4786;SDS011;62338;48.832;9.422;2023-02-26T07:02:16;6.00;;;2.40;;
4786;SDS011;62338;48.832;9.422;2023-02-26T07:04:19;7.67;;;2.20;;
4786;SDS011;62338;48.832;9.422;2023-02-26T07:06:21;3.90;;;1.93;;
4786;SDS011;62338;48.832;9.422;2023-02-26T07:08:38;5.23;;;2.47;;
4786;SDS011;62338;48.832;9.422;2023-02-26T07:10:41;4.97;;;2.17;;
4786;SDS011;62338;48.832;9.422;2023-02-26T07:12:43;3.50;;;2.40;;
4786;SDS011;62338;48.832;9.422;2023-02-26T07:14:45;5.10;;;2.20;;
4786;SDS011;62338;48.832;9.422;2023-02-26T07:16:47;3.93;;;2.00;;
4786;SDS011;62338;48.832;9.422;2023-02-26T07:18:48;3.33;;;1.60;;
4786;SDS011;62338;48.832;9.422;2023-02-26T07:20:50;5.90;;;2.03;;
4786;SDS011;62338;48.832;9.422;2023-02-26T07:22:52;3.20;;;1.70;;
4786;SDS011;62338;48.832;9.422;2023-02-26T07:24:54;3.83;;;2.00;;
4786;SDS011;62338;48.832;9.422;2023-02-26T07:26:56;5.03;;;1.67;;
4786;SDS011;62338;48.832;9.422;2023-02-26T07:28:58;5.37;;;1.80;;
4786;SDS011;62338;48.832;9.422;2023-02-26T07:30:59;6.83;;;1.77;;
4786;SDS011;62338;48.832;9.422;2023-02-26T07:33:01;6.07;;;2.13;;
4786;SDS011;62338;48.832;9.422;2023-02-26T07:35:03;4.60;;;1.90;;
4786;SDS011;62338;48.832;9.422;2023-02-26T07:37:05;7.30;;;1.90;;
4786;SDS011;62338;48.832;9.422;2023-02-26T07:39:07;4.47;;;1.73;;
4786;SDS011;62338;48.832;9.422;2023-02-26T07:41:09;7.90;;;2.30;;
4786;SDS011;62338;48.832;9.422;2023-02-26T07:43:11;6.33;;;2.00;;
4786;SDS011;62338;48.832;9.422;2023-02-26T07:45:15;3.73;;;1.97;;
4786;SDS011;62338;48.832;9.422;2023-02-26T07:47:22;4.60;;;2.10;;
4786;SDS011;62338;48.832;9.422;2023-02-26T07:49:24;6.60;;;2.20;;
4786;SDS011;62338;48.832;9.422;2023-02-26T07:51:26;8.47;;;3.40;;
4786;SDS011;62338;48.832;9.422;2023-02-26T07:53:28;6.37;;;3.27;;
4786;SDS011;62338;48.832;9.422;2023-02-26T07:55:30;4.67;;;2.43;;
4786;SDS011;62338;48.832;9.422;2023-02-26T07:57:31;5.50;;;2.07;;
4786;SDS011;62338;48.832;9.422;2023-02-26T07:59:33;6.73;;;2.73;;
4786;SDS011;62338;48.832;9.422;2023-02-26T08:01:35;4.13;;;1.90;;
4786;SDS011;62338;48.832;9.422;2023-02-26T08:03:37;4.90;;;2.30;;
4786;SDS011;62338;48.832;9.422;2023-02-26T08:05:39;7.27;;;2.07;;
4786;SDS011;62338;48.832;9.422;2023-02-26T08:07:41;3.53;;;1.60;;
4786;SDS011;62338;48.832;9.422;2023-02-26T08:09:43;7.57;;;2.60;;
4786;SDS011;62338;48.832;9.422;2023-02-26T08:11:45;5.80;;;1.97;;
4786;SDS011;62338;48.832;9.422;2023-02-26T08:13:48;3.20;;;1.40;;
4786;SDS011;62338;48.832;9.422;2023-02-26T08:15:50;2.30;;;1.50;;
4786;SDS011;62338;48.832;9.422;2023-02-26T08:17:52;4.97;;;1.80;;
4786;SDS011;62338;48.832;9.422;2023-02-26T08:19:54;3.93;;;1.67;;
4786;SDS011;62338;48.832;9.422;2023-02-26T08:21:56;3.07;;;2.00;;
4786;SDS011;62338;48.832;9.422;2023-02-26T08:23:58;4.27;;;2.03;;
4786;SDS011;62338;48.832;9.422;2023-02-26T08:26:00;5.77;;;2.83;;
4786;SDS011;62338;48.832;9.422;2023-02-26T08:28:03;4.10;;;2.30;;
4786;SDS011;62338;48.832;9.422;2023-02-26T08:30:05;3.77;;;1.70;;
4786;SDS011;62338;48.832;9.422;2023-02-26T08:32:08;5.93;;;2.50;;
4786;SDS011;62338;48.832;9.422;2023-02-26T08:34:10;4.80;;;2.40;;
4786;SDS011;62338;48.832;9.422;2023-02-26T08:36:12;5.20;;;2.00;;
4786;SDS011;62338;48.832;9.422;2023-02-26T08:38:14;6.50;;;3.00;;
4786;SDS011;62338;48.832;9.422;2023-02-26T08:40:16;3.53;;;2.13;;
4786;SDS011;62338;48.832;9.422;2023-02-26T08:42:19;11.23;;;1.77;;
4786;SDS011;62338;48.832;9.422;2023-02-26T08:44:21;5.23;;;2.63;;
4786;SDS011;62338;48.832;9.422;2023-02-26T08:46:22;8.43;;;3.10;;
4786;SDS011;62338;48.832;9.422;2023-02-26T08:48:25;6.20;;;3.00;;
4786;SDS011;62338;48.832;9.422;2023-02-26T08:50:27;6.93;;;2.30;;
4786;SDS011;62338;48.832;9.422;2023-02-26T08:52:29;5.20;;;2.20;;
4786;SDS011;62338;48.832;9.422;2023-02-26T08:54:31;4.23;;;2.23;;
4786;SDS011;62338;48.832;9.422;2023-02-26T08:56:32;6.67;;;2.83;;
4786;SDS011;62338;48.832;9.422;2023-02-26T08:58:34;4.50;;;2.50;;
4786;SDS011;62338;48.832;9.422;2023-02-26T09:00:36;12.43;;;4.07;;
4786;SDS011;62338;48.832;9.422;2023-02-26T09:02:37;5.60;;;3.23;;
4786;SDS011;62338;48.832;9.422;2023-02-26T09:04:39;4.97;;;2.60;;
4786;SDS011;62338;48.832;9.422;2023-02-26T09:06:41;6.40;;;2.57;;
4786;SDS011;62338;48.832;9.422;2023-02-26T09:08:43;3.90;;;2.17;;
4786;SDS011;62338;48.832;9.422;2023-02-26T09:10:45;6.37;;;2.77;;
4786;SDS011;62338;48.832;9.422;2023-02-26T09:12:47;8.47;;;3.10;;
4786;SDS011;62338;48.832;9.422;2023-02-26T09:14:49;10.20;;;3.00;;
4786;SDS011;62338;48.832;9.422;2023-02-26T09:16:51;5.70;;;2.57;;
4786;SDS011;62338;48.832;9.422;2023-02-26T09:18:53;5.13;;;2.80;;
4786;SDS011;62338;48.832;9.422;2023-02-26T09:20:56;6.80;;;3.07;;
4786;SDS011;62338;48.832;9.422;2023-02-26T09:22:57;7.17;;;2.93;;
4786;SDS011;62338;48.832;9.422;2023-02-26T09:24:59;5.50;;;2.23;;
4786;SDS011;62338;48.832;9.422;2023-02-26T09:27:01;7.30;;;2.43;;
4786;SDS011;62338;48.832;9.422;2023-02-26T09:29:03;5.27;;;2.30;;
4786;SDS011;62338;48.832;9.422;2023-02-26T09:31:05;7.20;;;3.33;;
4786;SDS011;62338;48.832;9.422;2023-02-26T09:33:08;4.60;;;2.00;;
4786;SDS011;62338;48.832;9.422;2023-02-26T09:35:09;4.87;;;2.50;;
4786;SDS011;62338;48.832;9.422;2023-02-26T09:37:12;6.60;;;3.53;;
4786;SDS011;62338;48.832;9.422;2023-02-26T09:39:13;4.33;;;1.63;;
4786;SDS011;62338;48.832;9.422;2023-02-26T09:41:20;5.20;;;2.93;;
4786;SDS011;62338;48.832;9.422;2023-02-26T09:43:49;3.60;;;1.87;;
4786;SDS011;62338;48.832;9.422;2023-02-26T09:45:55;3.90;;;2.07;;
4786;SDS011;62338;48.832;9.422;2023-02-26T09:48:00;4.30;;;1.70;;
4786;SDS011;62338;48.832;9.422;2023-02-26T09:50:18;3.97;;;2.40;;
4786;SDS011;62338;48.832;9.422;2023-02-26T09:52:36;3.93;;;1.80;;
4786;SDS011;62338;48.832;9.422;2023-02-26T09:57:31;3.70;;;2.03;;
4786;SDS011;62338;48.832;9.422;2023-02-26T09:59:35;4.03;;;1.50;;
4786;SDS011;62338;48.832;9.422;2023-02-26T10:01:39;7.03;;;2.20;;
4786;SDS011;62338;48.832;9.422;2023-02-26T10:06:31;5.33;;;2.07;;
4786;SDS011;62338;48.832;9.422;2023-02-26T10:08:43;7.60;;;3.50;;
4786;SDS011;62338;48.832;9.422;2023-02-26T10:11:10;5.90;;;2.67;;
4786;SDS011;62338;48.832;9.422;2023-02-26T10:13:32;4.50;;;2.20;;
4786;SDS011;62338;48.832;9.422;2023-02-26T10:15:59;4.13;;;2.10;;
4786;SDS011;62338;48.832;9.422;2023-02-26T10:18:29;3.63;;;1.60;;
4786;SDS011;62338;48.832;9.422;2023-02-26T10:20:37;2.50;;;1.57;;
4786;SDS011;62338;48.832;9.422;2023-02-26T10:25:18;8.50;;;3.10;;
4786;SDS011;62338;48.832;9.422;2023-02-26T10:30:09;2.67;;;2.00;;
4786;SDS011;62338;48.832;9.422;2023-02-26T10:33:32;5.07;;;2.50;;
4786;SDS011;62338;48.832;9.422;2023-02-26T10:35:03;5.10;;;2.80;;
4786;SDS011;62338;48.832;9.422;2023-02-26T10:41:36;4.70;;;2.73;;
4786;SDS011;62338;48.832;9.422;2023-02-26T10:43:39;3.93;;;2.33;;
4786;SDS011;62338;48.832;9.422;2023-02-26T10:45:46;5.80;;;3.30;;
4786;SDS011;62338;48.832;9.422;2023-02-26T10:48:21;5.47;;;3.50;;
4786;SDS011;62338;48.832;9.422;2023-02-26T10:50:39;5.20;;;2.60;;
4786;SDS011;62338;48.832;9.422;2023-02-26T10:52:48;5.03;;;2.97;;
4786;SDS011;62338;48.832;9.422;2023-02-26T10:54:57;6.30;;;3.00;;
4786;SDS011;62338;48.832;9.422;2023-02-26T10:57:22;4.13;;;2.70;;
4786;SDS011;62338;48.832;9.422;2023-02-26T10:59:26;2.97;;;2.07;;
4786;SDS011;62338;48.832;9.422;2023-02-26T11:01:29;2.67;;;1.63;;
4786;SDS011;62338;48.832;9.422;2023-02-26T11:03:33;3.90;;;1.77;;
4786;SDS011;62338;48.832;9.422;2023-02-26T11:05:40;3.37;;;2.20;;
4786;SDS011;62338;48.832;9.422;2023-02-26T11:07:43;2.37;;;1.67;;
4786;SDS011;62338;48.832;9.422;2023-02-26T11:09:48;2.87;;;1.80;;
4786;SDS011;62338;48.832;9.422;2023-02-26T11:11:55;2.57;;;1.47;;
4786;SDS011;62338;48.832;9.422;2023-02-26T11:14:15;2.97;;;1.47;;
4786;SDS011;62338;48.832;9.422;2023-02-26T11:16:17;3.67;;;1.80;;
4786;SDS011;62338;48.832;9.422;2023-02-26T11:18:23;3.07;;;1.93;;
4786;SDS011;62338;48.832;9.422;2023-02-26T11:22:41;3.67;;;2.60;;
4786;SDS011;62338;48.832;9.422;2023-02-26T11:24:50;4.20;;;2.73;;
4786;SDS011;62338;48.832;9.422;2023-02-26T11:26:53;2.90;;;1.80;;
4786;SDS011;62338;48.832;9.422;2023-02-26T11:28:56;2.60;;;1.47;;
4786;SDS011;62338;48.832;9.422;2023-02-26T11:31:05;2.33;;;1.40;;
4786;SDS011;62338;48.832;9.422;2023-02-26T11:33:16;19.70;;;10.27;;
4786;SDS011;62338;48.832;9.422;2023-02-26T11:35:22;4.97;;;1.90;;
4786;SDS011;62338;48.832;9.422;2023-02-26T11:37:28;5.80;;;3.13;;
4786;SDS011;62338;48.832;9.422;2023-02-26T11:39:32;5.50;;;2.90;;
4786;SDS011;62338;48.832;9.422;2023-02-26T11:41:37;8.90;;;4.80;;
4786;SDS011;62338;48.832;9.422;2023-02-26T11:43:41;8.30;;;5.53;;
4786;SDS011;62338;48.832;9.422;2023-02-26T11:45:47;6.93;;;3.87;;
4786;SDS011;62338;48.832;9.422;2023-02-26T11:47:57;5.87;;;4.20;;
4786;SDS011;62338;48.832;9.422;2023-02-26T11:50:03;4.33;;;2.97;;
4786;SDS011;62338;48.832;9.422;2023-02-26T11:52:27;2.37;;;1.63;;
4786;SDS011;62338;48.832;9.422;2023-02-26T11:54:33;3.60;;;1.73;;
4786;SDS011;62338;48.832;9.422;2023-02-26T11:56:38;2.13;;;1.63;;
4786;SDS011;62338;48.832;9.422;2023-02-26T11:58:43;4.30;;;2.97;;
4786;SDS011;62338;48.832;9.422;2023-02-26T12:00:46;2.20;;;1.30;;
4786;SDS011;62338;48.832;9.422;2023-02-26T12:02:50;2.20;;;1.60;;
4786;SDS011;62338;48.832;9.422;2023-02-26T12:04:58;1.90;;;1.00;;
4786;SDS011;62338;48.832;9.422;2023-02-26T12:07:02;3.80;;;1.50;;
4786;SDS011;62338;48.832;9.422;2023-02-26T12:09:11;3.40;;;1.30;;
4786;SDS011;62338;48.832;9.422;2023-02-26T12:14:10;1.77;;;1.13;;
4786;SDS011;62338;48.832;9.422;2023-02-26T12:19:20;2.00;;;1.07;;
4786;SDS011;62338;48.832;9.422;2023-02-26T12:21:23;2.40;;;1.40;;
4786;SDS011;62338;48.832;9.422;2023-02-26T12:37:32;2.13;;;1.40;;
4786;SDS011;62338;48.832;9.422;2023-02-26T12:40:14;3.80;;;1.60;;
4786;SDS011;62338;48.832;9.422;2023-02-26T12:45:25;2.80;;;1.40;;
4786;SDS011;62338;48.832;9.422;2023-02-26T12:48:25;4.00;;;1.10;;
4786;SDS011;62338;48.832;9.422;2023-02-26T13:07:20;1.80;;;0.90;;
4786;SDS011;62338;48.832;9.422;2023-02-26T13:12:06;3.13;;;1.30;;
4786;SDS011;62338;48.832;9.422;2023-02-26T13:14:23;3.80;;;1.93;;
4786;SDS011;62338;48.832;9.422;2023-02-26T13:17:07;1.70;;;1.00;;
4786;SDS011;62338;48.832;9.422;2023-02-26T13:21:21;1.93;;;1.10;;
4786;SDS011;62338;48.832;9.422;2023-02-26T13:23:32;2.33;;;1.30;;
4786;SDS011;62338;48.832;9.422;2023-02-26T13:25:49;2.00;;;0.90;;
4786;SDS011;62338;48.832;9.422;2023-02-26T13:27:56;3.23;;;1.33;;
4786;SDS011;62338;48.832;9.422;2023-02-26T13:32:18;2.27;;;1.20;;
4786;SDS011;62338;48.832;9.422;2023-02-26T13:34:47;3.30;;;1.40;;
4786;SDS011;62338;48.832;9.422;2023-02-26T13:36:46;2.27;;;1.10;;
4786;SDS011;62338;48.832;9.422;2023-02-26T13:48:06;2.07;;;1.10;;
4786;SDS011;62338;48.832;9.422;2023-02-26T13:52:24;1.80;;;1.00;;
4786;SDS011;62338;48.832;9.422;2023-02-26T13:54:41;1.90;;;1.10;;
4786;SDS011;62338;48.832;9.422;2023-02-26T13:58:53;2.00;;;1.00;;
4786;SDS011;62338;48.832;9.422;2023-02-26T14:03:30;6.23;;;3.07;;
4786;SDS011;62338;48.832;9.422;2023-02-26T14:07:51;8.73;;;2.50;;
4786;SDS011;62338;48.832;9.422;2023-02-26T14:10:14;11.13;;;4.50;;
4786;SDS011;62338;48.832;9.422;2023-02-26T14:14:38;7.00;;;2.80;;
4786;SDS011;62338;48.832;9.422;2023-02-26T14:16:42;9.90;;;4.33;;
4786;SDS011;62338;48.832;9.422;2023-02-26T14:18:50;8.10;;;3.43;;
4786;SDS011;62338;48.832;9.422;2023-02-26T14:20:52;11.13;;;4.23;;
4786;SDS011;62338;48.832;9.422;2023-02-26T14:23:34;12.30;;;4.20;;
4786;SDS011;62338;48.832;9.422;2023-02-26T14:27:42;2.63;;;1.40;;
4786;SDS011;62338;48.832;9.422;2023-02-26T14:34:14;2.47;;;1.27;;
4786;SDS011;62338;48.832;9.422;2023-02-26T14:36:27;3.90;;;1.80;;
4786;SDS011;62338;48.832;9.422;2023-02-26T14:38:36;4.60;;;2.27;;
4786;SDS011;62338;48.832;9.422;2023-02-26T14:40:46;2.90;;;1.37;;
4786;SDS011;62338;48.832;9.422;2023-02-26T14:42:51;3.60;;;1.70;;
4786;SDS011;62338;48.832;9.422;2023-02-26T14:45:05;3.80;;;1.70;;
4786;SDS011;62338;48.832;9.422;2023-02-26T14:47:30;5.67;;;3.10;;
4786;SDS011;62338;48.832;9.422;2023-02-26T14:49:33;3.03;;;1.60;;
4786;SDS011;62338;48.832;9.422;2023-02-26T14:56:07;3.63;;;1.50;;
4786;SDS011;62338;48.832;9.422;2023-02-26T14:58:16;3.00;;;1.30;;
4786;SDS011;62338;48.832;9.422;2023-02-26T15:16:49;3.90;;;1.27;;
4786;SDS011;62338;48.832;9.422;2023-02-26T15:21:23;1.50;;;0.83;;
4786;SDS011;62338;48.832;9.422;2023-02-26T15:25:42;2.87;;;1.13;;
4786;SDS011;62338;48.832;9.422;2023-02-26T15:27:46;4.87;;;1.37;;